createdAt,value
2022-08-30T00:02:18.030Z,102132.19
2022-08-30T00:04:44.607Z,102126.59
2022-08-30T00:07:11.076Z,102136.63
2022-08-30T00:09:37.530Z,102129.38
2022-08-30T00:12:04.515Z,102131.22
2022-08-30T00:14:30.997Z,102126.56
2022-08-30T00:16:57.423Z,102136.66
2022-08-30T00:19:24.844Z,102130.47
2022-08-30T00:21:51.331Z,102134.66
2022-08-30T00:24:17.776Z,102127.09
2022-08-30T00:26:44.218Z,102132.56
2022-08-30T00:29:10.703Z,102138.22
2022-08-30T00:31:37.115Z,102134.66
2022-08-30T00:34:03.579Z,102134.31
2022-08-30T00:36:29.980Z,102138.88
2022-08-30T00:38:56.420Z,102139.91
2022-08-30T00:41:22.859Z,102146.47
2022-08-30T00:43:49.467Z,102141.09
2022-08-30T00:46:15.977Z,102148.66
2022-08-30T00:48:45.478Z,102139.03
2022-08-30T00:51:13.465Z,102135.78
2022-08-30T00:53:47.219Z,102135.31
2022-08-30T00:56:14.476Z,102146.00
2022-08-30T00:58:45.431Z,102146.47
2022-08-30T01:01:12.106Z,102150.03
2022-08-30T01:03:39.395Z,102153.44
2022-08-30T01:06:07.527Z,102149.22
2022-08-30T01:08:34.288Z,102145.44
2022-08-30T01:11:01.257Z,102146.09
2022-08-30T01:13:27.919Z,102147.03
2022-08-30T01:15:54.833Z,102147.22
2022-08-30T01:18:23.253Z,102140.59
2022-08-30T01:21:04.306Z,102135.88
2022-08-30T01:23:32.363Z,102142.13
2022-08-30T01:25:59.167Z,102148.41
2022-08-30T01:28:27.008Z,102153.31
2022-08-30T01:30:54.257Z,102147.84
2022-08-30T01:33:21.668Z,102147.75
2022-08-30T01:35:50.273Z,102148.94
2022-08-30T01:38:17.919Z,102146.47
2022-08-30T01:40:44.901Z,102150.53
2022-08-30T01:43:12.723Z,102148.78
2022-08-30T01:45:39.450Z,102155.47
2022-08-30T01:48:06.706Z,102150.00
2022-08-30T01:50:33.380Z,102153.50
2022-08-30T01:52:59.849Z,102158.31
2022-08-30T01:55:26.642Z,102155.50
2022-08-30T01:57:53.088Z,102154.53
2022-08-30T02:00:19.675Z,102150.91
2022-08-30T02:02:46.124Z,102148.63
2022-08-30T02:05:12.762Z,102153.47
2022-08-30T02:07:39.216Z,102153.88
2022-08-30T02:10:06.382Z,102156.38
2022-08-30T02:12:32.845Z,102156.72
2022-08-30T02:14:59.480Z,102151.69
2022-08-30T02:17:26.391Z,102154.69
2022-08-30T02:19:52.842Z,102157.06
2022-08-30T02:22:20.899Z,102149.84
2022-08-30T02:24:47.362Z,102151.53
2022-08-30T02:27:14.030Z,102150.78
2022-08-30T02:29:40.484Z,102146.13
2022-08-30T02:32:06.947Z,102148.41
2022-08-30T02:34:33.419Z,102147.31
2022-08-30T02:37:00.928Z,102143.50
2022-08-30T02:39:27.402Z,102145.53
2022-08-30T02:41:53.855Z,102144.97
2022-08-30T02:44:20.399Z,102145.78
2022-08-30T02:46:48.075Z,102140.56
2022-08-30T02:49:32.544Z,102141.25
2022-08-30T02:51:59.446Z,102138.38
2022-08-30T02:54:25.930Z,102144.44
2022-08-30T02:56:52.360Z,102139.25
2022-08-30T02:59:18.946Z,102136.19
2022-08-30T03:01:45.607Z,102132.59
2022-08-30T03:04:12.251Z,102132.84
2022-08-30T03:06:38.865Z,102136.50
2022-08-30T03:09:05.395Z,102135.69
2022-08-30T03:11:31.832Z,102133.91
2022-08-30T03:13:58.315Z,102140.09
2022-08-30T03:16:24.952Z,102133.66
2022-08-30T03:18:51.490Z,102141.16
2022-08-30T03:21:18.133Z,102139.97
2022-08-30T03:23:45.162Z,102133.66
2022-08-30T03:26:13.156Z,102137.38
2022-08-30T03:28:40.147Z,102140.72
2022-08-30T03:31:06.746Z,102142.44
2022-08-30T03:33:33.186Z,102147.97
2022-08-30T03:35:59.640Z,102143.84
2022-08-30T03:38:26.173Z,102144.53
2022-08-30T03:40:52.653Z,102146.09
2022-08-30T03:43:19.313Z,102153.03
2022-08-30T03:45:46.197Z,102154.16
2022-08-30T03:48:13.004Z,102154.16
2022-08-30T03:50:40.538Z,102140.47
2022-08-30T03:53:07.006Z,102143.94
2022-08-30T03:55:33.813Z,102135.22
2022-08-30T03:58:00.244Z,102139.06
2022-08-30T04:00:26.826Z,102150.34
2022-08-30T04:02:53.240Z,102153.25
2022-08-30T04:05:20.143Z,102146.63
2022-08-30T04:07:46.566Z,102145.84
2022-08-30T04:10:13.433Z,102142.72
2022-08-30T04:12:39.866Z,102140.25
2022-08-30T04:15:08.092Z,102138.53
2022-08-30T04:17:34.556Z,102132.78
2022-08-30T04:20:01.059Z,102137.69
2022-08-30T04:22:27.491Z,102136.56
2022-08-30T04:24:54.095Z,102143.50
2022-08-30T04:27:20.616Z,102142.91
2022-08-30T04:29:47.786Z,102142.59
2022-08-30T04:32:14.635Z,102142.44
2022-08-30T04:34:41.087Z,102146.03
2022-08-30T04:37:09.841Z,102139.22
2022-08-30T04:39:36.581Z,102148.56
2022-08-30T04:42:03.408Z,102145.75
2022-08-30T04:44:31.598Z,102136.91
2022-08-30T04:46:58.982Z,102137.63
2022-08-30T04:49:25.430Z,102141.34
2022-08-30T04:51:51.857Z,102153.34
2022-08-30T04:54:18.303Z,102141.22
2022-08-30T04:56:44.781Z,102146.91
2022-08-30T04:59:11.308Z,102155.81
2022-08-30T05:01:44.799Z,102150.31
2022-08-30T05:04:12.362Z,102155.38
2022-08-30T05:06:39.033Z,102161.97
2022-08-30T05:09:05.619Z,102158.22
2022-08-30T05:11:32.057Z,102155.41
2022-08-30T05:13:58.511Z,102156.63
2022-08-30T05:16:25.005Z,102167.31
2022-08-30T05:18:53.894Z,102165.41
2022-08-30T05:21:22.993Z,102164.47
2022-08-30T05:23:50.226Z,102167.03
2022-08-30T05:26:20.065Z,102175.25
2022-08-30T05:28:46.688Z,102175.72
2022-08-30T05:31:35.196Z,102182.41
2022-08-30T05:34:02.217Z,102175.94
2022-08-30T05:36:30.310Z,102180.81
2022-08-30T05:38:57.166Z,102178.25
2022-08-30T05:41:26.728Z,102177.06
2022-08-30T05:43:55.204Z,102176.88
2022-08-30T05:46:22.084Z,102175.63
2022-08-30T05:48:49.475Z,102176.72
2022-08-30T05:51:19.263Z,102177.19
2022-08-30T05:53:46.453Z,102183.25
2022-08-30T05:56:16.742Z,102185.75
2022-08-30T05:58:43.721Z,102187.97
2022-08-30T06:01:24.983Z,102176.28
2022-08-30T06:03:52.016Z,102176.44
2022-08-30T06:06:18.474Z,102179.22
2022-08-30T06:08:48.934Z,102168.44
2022-08-30T06:11:17.611Z,102181.34
2022-08-30T06:13:44.036Z,102189.00
2022-08-30T06:16:15.517Z,102182.09
2022-08-30T06:18:42.005Z,102189.00
2022-08-30T06:21:11.150Z,102181.44
2022-08-30T06:23:41.094Z,102187.22
2022-08-30T06:26:08.362Z,102187.69
2022-08-30T06:28:35.544Z,102194.09
2022-08-30T06:31:02.276Z,102194.50
2022-08-30T06:33:28.822Z,102193.44
2022-08-30T06:35:58.800Z,102195.16
2022-08-30T06:38:26.832Z,102195.34
2022-08-30T06:40:53.274Z,102186.56
2022-08-30T06:43:20.823Z,102187.81
2022-08-30T06:45:47.270Z,102189.34
2022-08-30T06:48:13.758Z,102178.94
2022-08-30T06:50:42.125Z,102179.19
2022-08-30T06:53:09.568Z,102177.66
2022-08-30T06:55:36.309Z,102183.53
2022-08-30T06:58:03.694Z,102193.41
2022-08-30T07:00:30.189Z,102200.13
2022-08-30T07:02:57.507Z,102189.63
2022-08-30T07:05:24.021Z,102192.66
2022-08-30T07:07:53.269Z,102199.69
2022-08-30T07:10:21.381Z,102203.66
2022-08-30T07:12:48.045Z,102204.31
2022-08-30T07:15:14.988Z,102207.03
2022-08-30T07:18:00.093Z,102203.72
2022-08-30T07:20:26.898Z,102206.03
2022-08-30T07:22:53.337Z,102212.97
2022-08-30T07:25:19.939Z,102213.31
2022-08-30T07:27:46.656Z,102221.53
2022-08-30T07:30:13.413Z,102231.66
2022-08-30T07:32:39.881Z,102229.06
2022-08-30T07:35:06.561Z,102234.94
2022-08-30T07:37:33.033Z,102230.72
2022-08-30T07:39:59.538Z,102226.56
2022-08-30T07:42:25.995Z,102230.78
2022-08-30T07:44:56.501Z,102224.31
2022-08-30T07:47:23.535Z,102227.91
2022-08-30T07:49:50.031Z,102223.03
2022-08-30T07:52:16.477Z,102217.84
2022-08-30T07:54:43.066Z,102224.22
2022-08-30T07:57:09.742Z,102219.88
2022-08-30T07:59:36.442Z,102218.22
2022-08-30T08:02:03.237Z,102220.75
2022-08-30T08:04:29.835Z,102222.44
2022-08-30T08:06:56.365Z,102230.59
2022-08-30T08:09:22.835Z,102231.94
2022-08-30T08:11:49.284Z,102237.31
2022-08-30T08:16:47.126Z,102231.63
2022-08-30T08:19:13.586Z,102235.88
2022-08-30T08:21:40.075Z,102231.84
2022-08-30T08:24:07.144Z,102230.81
2022-08-30T08:26:37.364Z,102235.06
2022-08-30T08:29:04.960Z,102224.00
2022-08-30T08:31:33.856Z,102225.13
2022-08-30T08:34:02.690Z,102220.94
2022-08-30T08:36:31.262Z,102225.69
2022-08-30T08:38:58.563Z,102226.88
2022-08-30T08:41:39.125Z,102225.06
2022-08-30T08:44:43.856Z,102226.69
2022-08-30T08:47:26.327Z,102235.69
2022-08-30T08:49:56.371Z,102232.78
2022-08-30T08:52:50.040Z,102232.94
2022-08-30T08:55:19.033Z,102236.16
2022-08-30T08:57:45.707Z,102229.91
2022-08-30T09:00:14.048Z,102230.94
2022-08-30T09:02:41.876Z,102238.47
2022-08-30T09:05:09.347Z,102233.78
2022-08-30T09:07:41.261Z,102231.41
2022-08-30T09:10:08.032Z,102233.13
2022-08-30T09:12:34.567Z,102237.59
2022-08-30T09:15:09.807Z,102243.09
2022-08-30T09:17:51.306Z,102241.19
2022-08-30T09:20:41.256Z,102242.28
2022-08-30T09:23:13.619Z,102242.47
2022-08-30T09:25:55.431Z,102243.75
2022-08-30T09:28:28.646Z,102239.97
2022-08-30T09:31:20.896Z,102242.59
2022-08-30T09:34:05.424Z,102251.25
2022-08-30T09:36:44.696Z,102240.88
2022-08-30T09:39:17.731Z,102238.84
2022-08-30T09:41:48.217Z,102234.16
2022-08-30T09:44:22.767Z,102239.81
2022-08-30T09:46:55.504Z,102237.16
2022-08-30T09:49:35.935Z,102242.66
2022-08-30T09:52:33.154Z,102248.34
2022-08-30T09:55:21.683Z,102235.09
2022-08-30T09:57:52.656Z,102238.34
2022-08-30T10:00:25.430Z,102224.63
2022-08-30T10:03:34.829Z,102233.06
2022-08-30T10:06:06.077Z,102217.84
2022-08-30T10:08:38.332Z,102228.97
2022-08-30T10:11:25.276Z,102219.38
2022-08-30T10:14:05.185Z,102230.72
2022-08-30T10:16:41.779Z,102224.91
2022-08-30T10:19:19.209Z,102227.63
2022-08-30T10:21:50.783Z,102213.59
2022-08-30T10:24:21.241Z,102222.44
2022-08-30T10:26:49.119Z,102216.38
2022-08-30T10:29:43.281Z,102213.69
2022-08-30T10:32:20.121Z,102217.22
2022-08-30T10:34:52.015Z,102210.00
2022-08-30T10:37:26.180Z,102221.16
2022-08-30T10:40:40.198Z,102210.66
2022-08-30T10:43:15.089Z,102205.69
2022-08-30T10:45:43.661Z,102207.88
2022-08-30T10:48:27.098Z,102202.59
2022-08-30T10:50:55.735Z,102201.19
2022-08-30T10:53:32.478Z,102200.38
2022-08-30T10:56:15.559Z,102198.19
2022-08-30T10:58:42.766Z,102191.34
2022-08-30T11:01:50.203Z,102190.38
2022-08-30T11:04:32.712Z,102196.63
2022-08-30T11:07:21.590Z,102185.72
2022-08-30T11:10:37.251Z,102189.69
2022-08-30T11:13:16.208Z,102182.63
2022-08-30T11:15:57.785Z,102184.31
2022-08-30T11:18:25.158Z,102182.47
2022-08-30T11:20:54.280Z,102181.91
2022-08-30T11:23:33.593Z,102193.28
2022-08-30T11:26:06.008Z,102192.44
2022-08-30T11:28:36.997Z,102200.91
2022-08-30T11:31:20.126Z,102201.53
2022-08-30T11:33:49.559Z,102184.50
2022-08-30T11:36:37.711Z,102201.84
2022-08-30T11:39:13.084Z,102191.59
2022-08-30T11:41:48.041Z,102187.44
2022-08-30T11:44:30.193Z,102186.41
2022-08-30T11:47:02.085Z,102188.03
2022-08-30T11:49:51.633Z,102177.78
2022-08-30T11:52:33.514Z,102182.00
2022-08-30T11:55:12.508Z,102173.88
2022-08-30T11:58:04.464Z,102163.13
2022-08-30T12:00:40.840Z,102173.94
2022-08-30T12:03:16.650Z,102165.81
2022-08-30T12:05:44.220Z,102167.53
2022-08-30T12:08:34.097Z,102167.78
2022-08-30T12:11:10.858Z,102161.00
2022-08-30T12:13:37.189Z,102153.19
2022-08-30T12:16:26.123Z,102161.69
2022-08-30T12:18:59.943Z,102148.00
2022-08-30T12:21:31.322Z,102143.03
2022-08-30T12:24:18.316Z,102147.50
2022-08-30T12:26:46.594Z,102137.34
2022-08-30T12:29:25.439Z,102149.16
2022-08-30T12:31:58.373Z,102145.19
2022-08-30T12:34:55.975Z,102140.34
2022-08-30T12:37:28.713Z,102141.50
2022-08-30T12:40:18.521Z,102139.59
2022-08-30T12:42:56.726Z,102138.38
2022-08-30T12:45:42.892Z,102127.03
2022-08-30T12:48:12.379Z,102132.84
2022-08-30T12:50:55.652Z,102133.59
2022-08-30T12:53:39.365Z,102127.47
2022-08-30T12:56:11.525Z,102122.38
2022-08-30T12:58:47.402Z,102123.88
2022-08-30T13:01:27.485Z,102121.91
2022-08-30T13:03:55.227Z,102115.22
2022-08-30T13:06:44.252Z,102123.81
2022-08-30T13:09:34.688Z,102112.09
2022-08-30T13:12:03.647Z,102119.44
2022-08-30T13:14:42.370Z,102117.94
2022-08-30T13:17:28.115Z,102106.25
2022-08-30T13:20:04.024Z,102115.78
2022-08-30T13:22:33.371Z,102111.81
2022-08-30T13:25:00.010Z,102118.25
2022-08-30T13:27:27.572Z,102108.16
2022-08-30T13:29:54.398Z,102102.59
2022-08-30T13:32:21.261Z,102101.91
2022-08-30T13:34:47.783Z,102105.59
2022-08-30T13:40:11.513Z,102099.66
2022-08-30T13:42:38.281Z,102105.09
2022-08-30T13:45:40.694Z,102106.91
2022-08-30T13:47:51.616Z,102113.97
2022-08-30T13:50:19.741Z,102112.00
2022-08-30T13:52:47.480Z,102109.78
2022-08-30T13:55:14.690Z,102111.53
2022-08-30T13:57:57.602Z,102099.53
2022-08-30T14:00:25.580Z,102101.00
2022-08-30T14:02:55.816Z,102106.63
2022-08-30T14:05:47.760Z,102100.47
2022-08-30T14:10:59.823Z,102110.84
2022-08-30T14:13:29.269Z,102101.56
2022-08-30T14:18:43.884Z,102102.16
2022-08-30T14:21:10.526Z,102104.09
2022-08-30T14:23:36.939Z,102097.16
2022-08-30T14:26:07.667Z,102096.66
2022-08-30T14:28:34.086Z,102099.81
2022-08-30T14:31:02.581Z,102105.84
2022-08-30T14:33:29.029Z,102102.44
2022-08-30T14:35:55.547Z,102099.28
2022-08-30T14:38:21.996Z,102094.09
2022-08-30T14:40:48.866Z,102084.91
2022-08-30T14:43:15.296Z,102092.31
2022-08-30T14:45:42.624Z,102095.03
2022-08-30T14:48:11.656Z,102102.03
2022-08-30T14:50:39.332Z,102099.06
2022-08-30T14:53:06.815Z,102095.56
2022-08-30T14:55:34.550Z,102092.59
2022-08-30T14:58:01.281Z,102094.84
2022-08-30T15:00:28.372Z,102099.81
2022-08-30T15:02:54.878Z,102092.59
2022-08-30T15:05:21.299Z,102090.63
2022-08-30T15:07:50.741Z,102091.84
2022-08-30T15:10:20.010Z,102097.34
2022-08-30T15:12:51.604Z,102096.81
2022-08-30T15:15:21.532Z,102095.34
2022-08-30T15:17:48.494Z,102094.28
2022-08-30T15:20:18.776Z,102078.69
2022-08-30T15:22:46.151Z,102086.13
2022-08-30T15:25:13.321Z,102100.06
2022-08-30T15:27:39.802Z,102081.16
2022-08-30T15:30:07.383Z,102088.81
2022-08-30T15:32:33.830Z,102083.38
2022-08-30T15:35:00.335Z,102084.81
2022-08-30T15:37:27.312Z,102086.31
2022-08-30T15:39:53.866Z,102074.63
2022-08-30T15:42:20.654Z,102078.34
2022-08-30T15:44:52.189Z,102074.69
2022-08-30T15:47:23.277Z,102085.34
2022-08-30T15:50:01.249Z,102073.22
2022-08-30T15:52:28.226Z,102072.19
2022-08-30T15:54:54.775Z,102070.66
2022-08-30T15:57:21.686Z,102072.38
2022-08-30T15:59:48.718Z,102061.88
2022-08-30T16:02:15.369Z,102062.66
2022-08-30T16:04:43.445Z,102067.44
2022-08-30T16:07:10.139Z,102066.44
2022-08-30T16:09:38.018Z,102064.09
2022-08-30T16:12:05.578Z,102075.09
2022-08-30T16:14:33.093Z,102065.03
2022-08-30T16:16:59.744Z,102071.16
2022-08-30T16:19:26.774Z,102057.28
2022-08-30T16:21:53.230Z,102069.66
2022-08-30T16:24:22.758Z,102077.13
2022-08-30T16:26:49.668Z,102055.63
2022-08-30T16:29:16.084Z,102060.25
2022-08-30T16:31:47.387Z,102066.16
2022-08-30T16:34:16.066Z,102065.19
2022-08-30T16:36:42.855Z,102060.13
2022-08-30T16:39:09.657Z,102066.34
2022-08-30T16:41:37.263Z,102054.63
2022-08-30T16:44:05.233Z,102057.34
2022-08-30T16:46:33.352Z,102057.63
2022-08-30T16:49:03.440Z,102055.88
2022-08-30T16:51:31.690Z,102050.97
2022-08-30T16:54:01.543Z,102053.41
2022-08-30T16:56:30.080Z,102054.09
2022-08-30T16:59:02.057Z,102055.19
2022-08-30T17:04:20.728Z,102053.75
2022-08-30T17:06:49.653Z,102057.75
2022-08-30T17:09:35.970Z,102055.16
2022-08-30T17:12:04.006Z,102044.41
2022-08-30T17:14:30.940Z,102054.00
2022-08-30T17:16:58.455Z,102050.28
2022-08-30T17:19:28.725Z,102052.44
2022-08-30T17:21:56.262Z,102055.44
2022-08-30T17:24:22.765Z,102064.72
2022-08-30T17:26:51.096Z,102064.25
2022-08-30T17:29:17.617Z,102058.50
2022-08-30T17:31:46.427Z,102066.25
2022-08-30T17:34:17.917Z,102068.78
2022-08-30T17:36:44.575Z,102072.03
2022-08-30T17:39:11.798Z,102079.72
2022-08-30T17:41:48.194Z,102077.75
2022-08-30T17:44:18.426Z,102081.53
2022-08-30T17:46:45.106Z,102074.09
2022-08-30T17:49:11.866Z,102076.97
2022-08-30T17:51:47.875Z,102087.06
2022-08-30T17:54:14.839Z,102093.88
2022-08-30T17:56:41.915Z,102086.91
2022-08-30T17:59:10.550Z,102105.28
2022-08-30T18:01:37.191Z,102102.84
2022-08-30T18:04:05.980Z,102100.41
2022-08-30T18:06:33.622Z,102103.97
2022-08-30T18:09:01.204Z,102120.66
2022-08-30T18:11:27.633Z,102123.09
2022-08-30T18:13:54.250Z,102118.91
2022-08-30T18:16:21.762Z,102124.09
2022-08-30T18:18:57.178Z,102133.13
2022-08-30T18:21:23.803Z,102127.50
2022-08-30T18:23:52.061Z,102141.09
2022-08-30T18:26:18.611Z,102141.03
2022-08-30T18:28:50.964Z,102138.03
2022-08-30T18:31:17.464Z,102142.91
2022-08-30T18:33:44.514Z,102154.66
2022-08-30T18:36:11.001Z,102159.53
2022-08-30T18:38:37.836Z,102164.22
2022-08-30T18:41:08.075Z,102168.66
2022-08-30T18:43:35.859Z,102172.94
2022-08-30T18:46:09.375Z,102168.50
2022-08-30T18:48:36.582Z,102175.53
2022-08-30T18:51:03.884Z,102170.31
2022-08-30T18:53:32.283Z,102177.03
2022-08-30T18:55:59.650Z,102168.84
2022-08-30T18:58:26.150Z,102165.91
2022-08-30T19:00:54.034Z,102172.25
2022-08-30T19:03:23.115Z,102173.94
2022-08-30T19:05:50.426Z,102167.75
2022-08-30T19:08:16.952Z,102176.34
2022-08-30T19:10:44.203Z,102180.13
2022-08-30T19:13:11.047Z,102180.91
2022-08-30T19:15:37.764Z,102182.28
2022-08-30T19:18:07.390Z,102186.50
2022-08-30T19:20:44.522Z,102184.69
2022-08-30T19:23:10.947Z,102185.44
2022-08-30T19:25:39.684Z,102189.22
2022-08-30T19:28:06.128Z,102186.22
2022-08-30T19:30:32.733Z,102191.03
2022-08-30T19:32:59.203Z,102183.81
2022-08-30T19:35:26.050Z,102185.53
2022-08-30T19:37:52.518Z,102187.69
2022-08-30T19:40:19.661Z,102190.72
2022-08-30T19:42:47.523Z,102201.22
2022-08-30T19:45:21.694Z,102193.84
2022-08-30T19:47:49.057Z,102206.97
2022-08-30T19:50:16.461Z,102199.72
2022-08-30T19:52:44.581Z,102205.72
2022-08-30T19:55:13.440Z,102206.97
2022-08-30T19:57:39.889Z,102212.22
2022-08-30T20:00:09.207Z,102209.94
2022-08-30T20:02:38.171Z,102205.03
2022-08-30T20:05:05.061Z,102204.75
2022-08-30T20:07:35.424Z,102208.59
2022-08-30T20:10:10.779Z,102215.75
2022-08-30T20:12:39.717Z,102215.31
2022-08-30T20:15:14.614Z,102214.19
2022-08-30T20:18:02.411Z,102209.41
2022-08-30T20:20:31.628Z,102215.44
2022-08-30T20:22:59.709Z,102215.16
2022-08-30T20:24:23.526Z,102054.41
2022-08-30T20:25:28.657Z,102214.81
2022-08-30T20:27:55.622Z,102219.16
2022-08-30T20:30:22.227Z,102222.22
2022-08-30T20:32:48.741Z,102221.38
2022-08-30T20:35:16.664Z,102228.53
2022-08-30T20:37:43.385Z,102232.47
2022-08-30T20:40:15.053Z,102226.84
2022-08-30T20:42:46.431Z,102234.34
2022-08-30T20:45:15.293Z,102229.38
2022-08-30T20:47:42.912Z,102230.38
2022-08-30T20:50:13.647Z,102239.97
2022-08-30T20:52:41.090Z,102240.44
2022-08-30T20:55:08.248Z,102240.59
2022-08-30T20:57:34.734Z,102233.69
2022-08-30T21:00:01.827Z,102241.31
2022-08-30T21:02:28.423Z,102238.34
2022-08-30T21:04:55.088Z,102238.13
2022-08-30T21:07:21.599Z,102234.78
2022-08-30T21:09:48.086Z,102233.47
2022-08-30T21:12:14.569Z,102239.66
2022-08-30T21:14:41.049Z,102247.22
2022-08-30T21:17:07.535Z,102244.16
2022-08-30T21:19:34.051Z,102241.69
2022-08-30T21:22:00.590Z,102254.56
2022-08-30T21:24:27.102Z,102244.84
2022-08-30T21:26:55.554Z,102252.41
2022-08-30T21:29:22.019Z,102256.44
2022-08-30T21:31:48.519Z,102268.72
2022-08-30T21:34:17.379Z,102268.19
2022-08-30T21:36:47.047Z,102270.25
2022-08-30T21:39:18.201Z,102260.84
2022-08-30T21:41:44.951Z,102269.50
2022-08-30T21:44:14.717Z,102262.78
2022-08-30T21:46:41.543Z,102271.13
2022-08-30T21:49:10.048Z,102260.84
2022-08-30T21:51:39.143Z,102260.53
2022-08-30T21:54:08.537Z,102262.72
2022-08-30T21:56:36.076Z,102265.19
2022-08-30T21:59:04.376Z,102267.25
2022-08-30T22:01:31.188Z,102265.81
2022-08-30T22:03:59.525Z,102273.56
2022-08-30T22:06:31.155Z,102264.06
2022-08-30T22:08:59.261Z,102269.69
2022-08-30T22:11:26.437Z,102269.03
2022-08-30T22:13:54.135Z,102275.63
2022-08-30T22:16:20.942Z,102279.84
2022-08-30T22:18:48.050Z,102273.56
2022-08-30T22:21:16.593Z,102278.09
2022-08-30T22:23:43.621Z,102279.34
2022-08-30T22:26:10.697Z,102280.38
2022-08-30T22:28:37.344Z,102279.56
2022-08-30T22:31:06.403Z,102281.28
2022-08-30T22:33:32.900Z,102278.13
2022-08-30T22:36:05.037Z,102277.78
2022-08-30T22:38:31.459Z,102275.31
2022-08-30T22:40:57.888Z,102287.25
2022-08-30T22:43:24.326Z,102277.56
2022-08-30T22:45:50.835Z,102285.53
2022-08-30T22:48:17.365Z,102287.59
2022-08-30T22:50:43.977Z,102288.56
2022-08-30T22:53:10.570Z,102290.22
2022-08-30T22:55:40.274Z,102296.75
2022-08-30T22:58:07.136Z,102298.22
2022-08-30T23:00:33.706Z,102302.19
2022-08-30T23:03:00.168Z,102296.66
2022-08-30T23:05:26.618Z,102307.44
2022-08-30T23:07:53.352Z,102311.16
2022-08-30T23:10:19.872Z,102301.41
2022-08-30T23:12:46.523Z,102307.69
2022-08-30T23:15:14.963Z,102297.47
2022-08-30T23:17:41.501Z,102298.84
2022-08-30T23:20:08.494Z,102291.19
2022-08-30T23:22:34.979Z,102292.22
2022-08-30T23:25:19.982Z,102293.31
2022-08-30T23:28:05.466Z,102295.88
2022-08-30T23:30:50.462Z,102287.31
2022-08-30T23:33:36.032Z,102287.66
2022-08-30T23:36:32.506Z,102294.25
2022-08-30T23:39:17.442Z,102286.56
2022-08-30T23:42:02.611Z,102291.97
2022-08-30T23:44:47.813Z,102284.44
2022-08-30T23:47:33.115Z,102291.81
2022-08-30T23:50:18.124Z,102278.75
2022-08-30T23:53:03.295Z,102293.38
2022-08-30T23:55:48.821Z,102298.47
2022-08-30T23:58:33.920Z,102289.75
